Home   Weather   Germany   Meiningen   Past weeks
Flag for Germany

Past Weather in Meiningen, Thuringia, Germany — Yesterday and Last 2 Weeks

Currently: 30 °F. Sunny. (Weather station: Erfurt-Bindersleben, Germany). See more current weather

Past Weather in Meiningen — Graph

°F

Meiningen Temperature Yesterday

Maximum temperature yesterday: 37 °F (at 11:20 am)
Minimum temperature yesterday: 27 °F (at 11:50 pm)
Average temperature yesterday: 34 °F

High & Low Weather Summary for the Past Weeks

 TemperatureHumidityPressure
High64 °F (Feb 21, 3:50 pm)100% (Feb 26, 10:50 am)30.66 "Hg (Feb 26, 10:50 am)
Low21 °F (Mar 6, 3:50 am)34% (Feb 21, 4:20 pm)29.98 "Hg (Mar 4, 3:50 pm)
Average43 °F77%30.34 "Hg
* Reported Feb 19 9:20 am — Mar 6 9:20 am, Meiningen. Weather by CustomWeather, © 2021

Note: Actual official high and low records may vary slightly from our data, if they occured in-between our weather recording intervals... More about our weather records

Meiningen Weather History for the Previous 24 Hours

Scroll right to see more
 ConditionsComfort  
Time TempWeatherWind HumidityBarometerVisibility
9:20 am
Sat, Mar 6
30 °FSunny.9 mph75%30.48 "Hg10 mi
8:50 am28 °FSunny.8 mph80%30.48 "Hg10 mi
8:20 am27 °FSunny.9 mph86%30.48 "Hg10 mi
7:50 am25 °FSunny.9 mph86%30.48 "Hg10 mi
7:20 am21 °FSunny.9 mph93%30.48 "Hg10 mi
6:50 am21 °FSunny.9 mph86%30.48 "Hg10 mi
6:20 am21 °FClear.9 mph93%30.48 "Hg10 mi
5:50 am21 °FClear.9 mph93%30.45 "Hg10 mi
5:20 am21 °FClear.9 mph93%30.45 "Hg10 mi
4:50 am21 °FClear.9 mph93%30.45 "Hg10 mi
4:20 am21 °FClear.9 mph93%30.45 "Hg10 mi
3:50 am21 °FClear.9 mph93%30.45 "Hg10 mi
3:20 am23 °FClear.9 mph86%30.45 "Hg10 mi
2:50 am23 °FClear.8 mph86%30.45 "Hg10 mi
2:20 am25 °FClear.8 mph86%30.45 "Hg10 mi
1:50 am25 °FClear.8 mph86%30.48 "Hg10 mi
1:20 am25 °FClear.9 mph86%30.48 "Hg10 mi
12:50 am25 °FClear.8 mph86%30.45 "Hg10 mi
12:20 am25 °FClear.8 mph86%30.45 "Hg10 mi
11:50 pm
Fri, Mar 5
27 °FClear.7 mph80%30.45 "Hg10 mi
11:20 pm28 °FClear.6 mph74%30.45 "Hg10 mi
10:50 pm28 °FClear.2 mph74%30.45 "Hg10 mi
10:20 pm30 °FClear.6 mph75%30.45 "Hg10 mi
9:50 pm30 °FClear.7 mph75%30.42 "Hg10 mi
9:20 pm30 °FClear.6 mph75%30.42 "Hg10 mi
8:50 pm30 °FClear.6 mph75%30.42 "Hg10 mi
8:20 pm30 °FClear.6 mph75%30.39 "Hg10 mi
7:50 pm32 °FClear.6 mph69%30.39 "Hg10 mi
7:20 pm32 °FClear.6 mph75%30.39 "Hg10 mi
6:50 pm32 °FClear.5 mph69%30.39 "Hg10 mi
6:20 pm34 °FClear.2 mph65%30.36 "Hg10 mi
5:50 pm34 °FSunny.5 mph60%30.36 "Hg10 mi
5:20 pm37 °FSunny.6 mph48%30.33 "Hg10 mi
4:50 pm36 °FPassing clouds.8 mph56%30.33 "HgN/A
4:20 pm37 °FPassing clouds.10 mph52%30.33 "HgN/A
3:50 pm37 °FPassing clouds.9 mph52%30.33 "HgN/A
3:20 pm37 °FPassing clouds.9 mph52%30.30 "HgN/A
2:50 pm37 °FScattered clouds.10 mph56%30.30 "HgN/A
2:20 pm37 °FSnow flurries. Scattered clouds.12 mph60%30.30 "HgN/A
1:50 pm37 °FScattered clouds.12 mph52%30.30 "HgN/A
1:20 pm37 °FScattered clouds.12 mph52%30.30 "HgN/A
12:50 pm36 °FScattered clouds.13 mph56%30.27 "HgN/A
12:20 pm37 °FScattered clouds.12 mph56%30.27 "HgN/A
11:50 am37 °FPassing clouds.12 mph52%30.27 "HgN/A
11:20 am37 °FPassing clouds.12 mph56%30.24 "HgN/A
10:50 am36 °FPassing clouds.13 mph60%30.24 "HgN/A
10:20 am36 °FPassing clouds.15 mph65%30.24 "HgN/A
Weather by CustomWeather, © 2021

See weather overview